Language: 


Des rapports , des résumés tant et plus, au choix de chacun....


Données statistiques de la station
Quotidien Rapport Mars 29, 2017 Unités:  Anglais    Métrique   les deux
« Précédent Jour
Suivant Jour »
Quotidien Hebdomadaire Mensuel Annuel Actuel
  Haut: Bas: Moyen:
Température: 64.6 °F 46.8 °F 55.2 °F
Pt de rosée: 54.3 °F 43.2 °F 46.8 °F
Humidité: 92 % 50 % 75 %
Vitesse du vent: 17.9 mph 0 mph 5.3 mph
Rafales: 19.2 mph - -
Vent:- - WSW
Pression: 30.3 in 30.2 in -
Précipitation: 0 in    
Historical Graphs
 
 
Données statistiques pour Mars 29, 2017
Heure Température Point de rosée Pression Vent Vitesse du vent Refales Humidité Pluie (taux horaire)
00:01 50.7 °F 45.3 °F 30.2 in Calm   2.5 mph 82 % 0 in
00:06 50.4 °F 45.3 °F 30.2 in West 2.5 mph 3.1 mph 83 % 0 in
00:11 50 °F 45 °F 30.2 in Calm   3.1 mph 83 % 0 in
00:16 49.8 °F 45 °F 30.2 in Calm   2.9 mph 83 % 0 in
00:21 49.1 °F 44.2 °F 30.2 in Calm     83 % 0 in
00:26 48.7 °F 43.9 °F 30.2 in Calm     83 % 0 in
00:27 48.7 °F 43.9 °F 30.2 in Calm     83 % 0 in
00:32 48.2 °F 43.3 °F 30.2 in Calm     83 % 0 in
00:37 47.8 °F 43.3 °F 30.2 in Calm   2 mph 84 % 0 in
00:42 47.7 °F 43.3 °F 30.2 in Calm   2.2 mph 85 % 0 in
00:47 47.5 °F 43.2 °F 30.2 in Calm   2.2 mph 85 % 0 in
00:52 47.3 °F 43.2 °F 30.2 in Calm     85 % 0 in
00:58 47.1 °F 43.2 °F 30.2 in Calm     86 % 0 in
01:03 47.1 °F 43.2 °F 30.2 in Calm     86 % 0 in
01:08 46.9 °F 43.3 °F 30.2 in Calm     87 % 0 in
01:13 46.9 °F 43.3 °F 30.2 in Calm     87 % 0 in
01:18 46.9 °F 43.3 °F 30.2 in Calm     87 % 0 in
01:23 46.8 °F 43.5 °F 30.2 in Calm     88 % 0 in
01:28 46.9 °F 43.5 °F 30.2 in Calm   2.7 mph 88 % 0 in
01:33 46.9 °F 43.9 °F 30.2 in Calm   2.7 mph 89 % 0 in
01:38 47.3 °F 44.2 °F 30.2 in Calm   3.6 mph 89 % 0 in
01:43 47.5 °F 44.8 °F 30.2 in SW 2.5 mph 3.6 mph 90 % 0 in
01:48 47.8 °F 45.1 °F 30.2 in Calm   3.1 mph 90 % 0 in
01:53 48.4 °F 45.9 °F 30.2 in SSW 3.4 mph 4.3 mph 91 % 0 in
01:58 48.7 °F 46.2 °F 30.2 in SW 4.3 mph 5.4 mph 91 % 0 in
02:03 49.1 °F 46.6 °F 30.2 in SSW 0.9 mph 5.4 mph 91 % 0 in
02:08 49.5 °F 47.1 °F 30.2 in Calm   4.3 mph 92 % 0 in
02:13 49.6 °F 47.1 °F 30.2 in Calm   3.1 mph 91 % 0 in
02:18 49.8 °F 47.3 °F 30.2 in SSW 1.3 mph 5.4 mph 91 % 0 in
02:23 49.8 °F 47.3 °F 30.2 in South 3.6 mph 5.4 mph 91 % 0 in
02:28 49.6 °F 46.8 °F 30.2 in Calm   4 mph 90 % 0 in
02:33 49.5 °F 46.8 °F 30.2 in Calm   4 mph 90 % 0 in
02:38 49.3 °F 46.6 °F 30.2 in Calm   3.4 mph 90 % 0 in
02:43 49.1 °F 46.2 °F 30.2 in Calm     90 % 0 in
02:48 48.9 °F 46 °F 30.2 in Calm     90 % 0 in
02:53 48.9 °F 46 °F 30.2 in SSW 1.3 mph 2 mph 90 % 0 in
02:58 48.7 °F 45.7 °F 30.2 in Calm   2 mph 89 % 0 in
03:03 48.6 °F 45.9 °F 30.2 in Calm   1.3 mph 90 % 0 in
03:08 48.7 °F 46 °F 30.2 in Calm   2 mph 90 % 0 in
03:13 48.9 °F 46 °F 30.2 in South 2 mph 3.8 mph 90 % 0 in
03:18 49.1 °F 46.6 °F 30.2 in SSW 3.6 mph 4.9 mph 91 % 0 in
03:23 49.5 °F 46.9 °F 30.2 in SSW 4.3 mph 5.4 mph 91 % 0 in
03:29 49.6 °F 47.1 °F 30.2 in WSW 4 mph 5.4 mph 91 % 0 in
03:34 49.8 °F 47.3 °F 30.2 in SW 3.6 mph 5.6 mph 91 % 0 in
03:39 50.2 °F 47.7 °F 30.2 in SSW 3.1 mph 8.7 mph 91 % 0 in
03:44 50.4 °F 47.8 °F 30.2 in SW 7.4 mph 8.7 mph 91 % 0 in
03:49 50.4 °F 47.8 °F 30.2 in SW 5.8 mph 7.4 mph 91 % 0 in
03:54 50.4 °F 47.5 °F 30.2 in SW 4.3 mph 7.6 mph 90 % 0 in
03:59 50.4 °F 47.5 °F 30.2 in SSW 4 mph 7.6 mph 90 % 0 in
04:04 50.4 °F 47.1 °F 30.2 in WSW 3.8 mph 6.5 mph 89 % 0 in
04:09 50.2 °F 47.1 °F 30.2 in SW 3.1 mph 6.5 mph 89 % 0 in
04:14 50.2 °F 46.8 °F 30.2 in SW 5.6 mph 6.5 mph 88 % 0 in
04:19 50 °F 46.6 °F 30.2 in Calm   5.8 mph 88 % 0 in
04:24 49.8 °F 46.4 °F 30.2 in SSW 4.7 mph 6.3 mph 88 % 0 in
04:29 49.8 °F 46.4 °F 30.2 in WSW 3.6 mph 6.3 mph 88 % 0 in
04:34 49.6 °F 46.2 °F 30.2 in SSW 5.8 mph 5.8 mph 88 % 0 in
04:39 49.8 °F 46.4 °F 30.2 in SSW 6 mph 7.6 mph 88 % 0 in
04:44 50 °F 46.6 °F 30.2 in SW 7.4 mph 8.5 mph 88 % 0 in
04:49 50.2 °F 46.8 °F 30.2 in WSW 7.6 mph 8.5 mph 88 % 0 in
04:54 50.2 °F 46.8 °F 30.2 in SSW 6.7 mph 8.5 mph 88 % 0 in
04:59 50.2 °F 46.8 °F 30.2 in SSW 5.8 mph 8.5 mph 88 % 0 in
05:04 50.2 °F 46.8 °F 30.2 in SW 7.4 mph 8.5 mph 88 % 0 in
05:09 50.2 °F 46.4 °F 30.2 in SW 7.8 mph 8.7 mph 87 % 0 in
05:14 50.2 °F 46.4 °F 30.2 in SSW 5.6 mph 8.9 mph 87 % 0 in
05:19 50.2 °F 46 °F 30.2 in SSW 4.9 mph 8.9 mph 86 % 0 in
05:24 50 °F 46 °F 30.2 in SW 4.7 mph 9.2 mph 86 % 0 in
05:29 49.8 °F 45.9 °F 30.2 in SW 4.3 mph 9.2 mph 86 % 0 in
05:34 49.6 °F 45.7 °F 30.2 in SW 4.9 mph 8.5 mph 86 % 0 in
05:39 49.6 °F 45.7 °F 30.2 in SSW 6 mph 8.5 mph 86 % 0 in
05:44 49.5 °F 45.3 °F 30.2 in SSW 4.9 mph 7.8 mph 86 % 0 in
05:49 49.3 °F 45.3 °F 30.2 in SW 4.3 mph 7.8 mph 86 % 0 in
05:54 49.1 °F 45.3 °F 30.2 in SSW 5.6 mph 6.5 mph 87 % 0 in
05:59 49.1 °F 45.3 °F 30.2 in SSW 6 mph 7.8 mph 87 % 0 in
06:05 49.1 °F 45.3 °F 30.2 in WSW 5.6 mph 7.8 mph 87 % 0 in
06:10 49.1 °F 45.7 °F 30.2 in SSW 4.9 mph 7.4 mph 88 % 0 in
06:15 49.1 °F 45.7 °F 30.2 in SW 6 mph 6.9 mph 88 % 0 in
06:20 49.1 °F 45.7 °F 30.2 in SW 4.7 mph 6.3 mph 88 % 0 in
06:25 48.9 °F 45.5 °F 30.2 in SSW 6 mph 6.3 mph 88 % 0 in
06:30 48.9 °F 45.5 °F 30.2 in South 4 mph 6.3 mph 88 % 0 in
06:35 48.7 °F 45.3 °F 30.2 in Calm   5.8 mph 88 % 0 in
06:40 48.4 °F 44.8 °F 30.2 in South 3.6 mph 4.3 mph 87 % 0 in
06:45 48.4 °F 44.8 °F 30.2 in SSW 2.7 mph 5.4 mph 87 % 0 in
06:50 48.2 °F 44.4 °F 30.2 in South 3.1 mph 5.4 mph 87 % 0 in
06:55 48.2 °F 44.8 °F 30.2 in SSW 4.7 mph 5.6 mph 88 % 0 in
07:00 48.4 °F 45 °F 30.2 in SSW 3.8 mph 7.6 mph 88 % 0 in
07:05 48.4 °F 45.3 °F 30.2 in Calm   7.6 mph 89 % 0 in
07:10 48.6 °F 45.5 °F 30.2 in SW 4.3 mph 9.2 mph 89 % 0 in
07:15 48.7 °F 46 °F 30.2 in SSW 4 mph 9.2 mph 90 % 0 in
07:16 48.7 °F 46 °F 30.2 in SSW 3.8 mph 9.2 mph 90 % 0 in
07:21 49.1 °F 46.2 °F 30.2 in SW 4 mph 7.6 mph 90 % 0 in
07:26 49.3 °F 46.2 °F 30.2 in SW 4 mph 7.6 mph 89 % 0 in
07:31 49.5 °F 46.4 °F 30.2 in SW 4 mph 7.6 mph 89 % 0 in
07:36 49.6 °F 46.2 °F 30.2 in SW 5.8 mph 8.1 mph 88 % 0 in
07:41 49.8 °F 46.4 °F 30.2 in SW 6.5 mph 8.5 mph 88 % 0 in
07:46 49.8 °F 46 °F 30.2 in SW 7.2 mph 8.5 mph 87 % 0 in
07:51 50 °F 46.2 °F 30.2 in SW 6 mph 8.5 mph 87 % 0 in
07:56 50.2 °F 46 °F 30.2 in WSW 6 mph 7.8 mph 86 % 0 in
08:01 50.4 °F 46.2 °F 30.2 in SW 6.7 mph 8.5 mph 86 % 0 in
08:06 50.5 °F 46.6 °F 30.2 in SW 8.7 mph 8.7 mph 86 % 0 in
08:11 50.7 °F 46.8 °F 30.2 in WSW 8.7 mph 8.7 mph 86 % 0 in
08:16 51.1 °F 46.8 °F 30.2 in WSW 7.8 mph 10.3 mph 85 % 0 in
08:21 51.3 °F 46.9 °F 30.2 in WSW 7.8 mph 10.3 mph 85 % 0 in
08:26 51.4 °F 46.8 °F 30.2 in WSW 7.8 mph 10.3 mph 84 % 0 in
08:31 51.6 °F 46.9 °F 30.2 in SW 7.6 mph 10.3 mph 84 % 0 in
08:36 51.8 °F 47.1 °F 30.2 in WSW 6.3 mph 10.1 mph 84 % 0 in
08:41 51.8 °F 47.1 °F 30.2 in WSW 5.6 mph 11 mph 84 % 0 in
08:46 51.8 °F 46.8 °F 30.2 in West 6.5 mph 11 mph 83 % 0 in
08:51 52 °F 47.1 °F 30.2 in West 7.4 mph 9.8 mph 84 % 0 in
08:56 52 °F 47.7 °F 30.2 in WSW 7.6 mph 11.9 mph 85 % 0 in
09:01 52.2 °F 47.7 °F 30.2 in WSW 5.6 mph 11.9 mph 85 % 0 in
09:06 52.2 °F 47.7 °F 30.2 in WSW 6 mph 10.5 mph 85 % 0 in
09:11 52.2 °F 48 °F 30.2 in WSW 6.3 mph 9.8 mph 86 % 0 in
09:16 52.3 °F 48.2 °F 30.2 in WSW 7.2 mph 9.8 mph 86 % 0 in
09:21 52.5 °F 48.9 °F 30.2 in SW 6.3 mph 8.7 mph 87 % 0 in
09:26 52.9 °F 49.1 °F 30.2 in WSW 6.7 mph 8.7 mph 87 % 0 in
09:31 53.1 °F 49.3 °F 30.2 in WSW 5.4 mph 8.7 mph 87 % 0 in
09:36 53.2 °F 49.1 °F 30.2 in SW 6.5 mph 8.7 mph 86 % 0 in
09:41 53.2 °F 49.3 °F 30.2 in WSW 6.3 mph 8.5 mph 86 % 0 in
09:46 53.4 °F 49.5 °F 30.2 in SW 6.9 mph 9.8 mph 86 % 0 in
09:51 53.8 °F 49.6 °F 30.2 in WSW 6.5 mph 9.8 mph 86 % 0 in
09:56 53.8 °F 49.3 °F 30.2 in WSW 6.3 mph 8.9 mph 85 % 0 in
10:01 54 °F 49.6 °F 30.2 in SW 6 mph 8.9 mph 85 % 0 in
10:06 54 °F 49.6 °F 30.2 in WSW 5.4 mph 8.1 mph 85 % 0 in
10:11 54.1 °F 49.5 °F 30.2 in SSW 1.6 mph 7.6 mph 84 % 0 in
10:16 54.3 °F 49.3 °F 30.2 in SW 8.1 mph 8.5 mph 83 % 0 in
10:21 54.3 °F 49.3 °F 30.2 in SW 8.7 mph 9.8 mph 83 % 0 in
10:26 54.3 °F 48.9 °F 30.2 in SSW 8.5 mph 9.8 mph 82 % 0 in
10:31 54.7 °F 49.3 °F 30.2 in SW 6 mph 9.8 mph 82 % 0 in
10:36 54.7 °F 48.9 °F 30.2 in SSW 7.6 mph 9.2 mph 81 % 0 in
10:41 54.9 °F 48.9 °F 30.3 in SSW 7.4 mph 9.2 mph 81 % 0 in
10:46 54.9 °F 48.9 °F 30.3 in SW 5.8 mph 10.5 mph 81 % 0 in
10:51 54.9 °F 48.9 °F 30.3 in SW 5.6 mph 10.5 mph 81 % 0 in
10:56 54.7 °F 48.6 °F 30.3 in SSW 7.2 mph 9.2 mph 80 % 0 in
11:02 54.7 °F 48.6 °F 30.3 in SSW 6 mph 9.2 mph 80 % 0 in
11:07 54.9 °F 48.7 °F 30.3 in SSW 7.6 mph 8.7 mph 80 % 0 in
11:12 54.9 °F 48.9 °F 30.3 in WSW 7.2 mph 8.5 mph 81 % 0 in
11:17 54.9 °F 48.9 °F 30.3 in SSW 5.6 mph 8.5 mph 81 % 0 in
11:22 54.9 °F 48.9 °F 30.3 in WSW 6.3 mph 8.7 mph 81 % 0 in
11:27 54.9 °F 49.3 °F 30.3 in SW 6 mph 8.9 mph 81 % 0 in
11:32 54.9 °F 48.9 °F 30.3 in WSW 7.6 mph 10.3 mph 80 % 0 in
11:37 55 °F 49.5 °F 30.3 in SW 7.8 mph 10.3 mph 81 % 0 in
11:42 55 °F 49.5 °F 30.3 in SSW 7.8 mph 12.8 mph 81 % 0 in
11:47 55.2 °F 49.6 °F 30.3 in WSW 7.8 mph 12.8 mph 81 % 0 in
11:52 55.2 °F 49.8 °F 30.3 in West 17.9 mph 17.9 mph 82 % 0 in
11:57 55.2 °F 49.8 °F 30.3 in West 10.7 mph 17.9 mph 82 % 0 in
12:02 55.6 °F 50.2 °F 30.3 in WSW 7.4 mph 17.7 mph 82 % 0 in
12:07 55.6 °F 50.2 °F 30.3 in WSW 11.9 mph 12.5 mph 82 % 0 in
12:12 55.6 °F 50.2 °F 30.3 in WSW 10.1 mph 12.5 mph 82 % 0 in
12:17 55.8 °F 50.4 °F 30.3 in WSW 10.1 mph 11 mph 82 % 0 in
12:22 55.8 °F 50.4 °F 30.2 in WSW 12.5 mph 14.3 mph 82 % 0 in
12:27 55.8 °F 50.4 °F 30.2 in West 10.5 mph 14.3 mph 82 % 0 in
12:32 55.8 °F 50.7 °F 30.2 in WSW 7.8 mph 13 mph 83 % 0 in
12:37 56.1 °F 51.1 °F 30.3 in WSW 8.9 mph 11 mph 83 % 0 in
12:42 56.7 °F 51.6 °F 30.3 in WSW 8.1 mph 10.3 mph 83 % 0 in
12:47 57.2 °F 52.2 °F 30.3 in SW 6 mph 10.3 mph 83 % 0 in
12:52 57.4 °F 52 °F 30.3 in WSW 5.6 mph 8.7 mph 82 % 0 in
12:57 58.5 °F 52.5 °F 30.3 in SW 5.8 mph 8.5 mph 81 % 0 in
13:02 60.3 °F 54.3 °F 30.3 in WSW 6 mph 7.8 mph 81 % 0 in
13:07 60.4 °F 53.4 °F 30.3 in WSW 7.6 mph 9.6 mph 78 % 0 in
13:12 60.3 °F 52 °F 30.3 in WSW 7.6 mph 13.9 mph 74 % 0 in
13:17 59.7 °F 51.1 °F 30.3 in WSW 11 mph 13.9 mph 73 % 0 in
13:22 59.5 °F 50.9 °F 30.3 in WSW 7.8 mph 13.9 mph 73 % 0 in
13:27 59.9 °F 51.3 °F 30.3 in WSW 13 mph 13.9 mph 73 % 0 in
13:32 60.3 °F 50.7 °F 30.3 in SW 12.3 mph 15.2 mph 71 % 0 in
13:38 60.8 °F 51.3 °F 30.3 in WSW 9.8 mph 15.2 mph 71 % 0 in
13:43 61.5 °F 51.6 °F 30.3 in WSW 6.5 mph 13.2 mph 70 % 0 in
13:48 62.2 °F 52 °F 30.3 in West 7.6 mph 11 mph 69 % 0 in
13:53 62.4 °F 51.4 °F 30.3 in SW 11 mph 12.3 mph 67 % 0 in
13:58 62.8 °F 51.3 °F 30.3 in WSW 12.5 mph 14.1 mph 66 % 0 in
14:03 63 °F 50.5 °F 30.3 in West 12.5 mph 14.1 mph 64 % 0 in
14:08 62.8 °F 49.5 °F 30.2 in WSW 12.5 mph 17.4 mph 62 % 0 in
14:13 62.4 °F 49.3 °F 30.2 in West 12.8 mph 17.4 mph 62 % 0 in
14:18 63.1 °F 50 °F 30.2 in WSW 11.4 mph 15.4 mph 62 % 0 in
14:23 62.4 °F 48.4 °F 30.2 in West 10.5 mph 15.4 mph 60 % 0 in
14:28 62.2 °F 48 °F 30.2 in WSW 7.4 mph 14.8 mph 60 % 0 in
14:33 62.1 °F 47.8 °F 30.2 in West 8.1 mph 14.3 mph 60 % 0 in
14:38 62.8 °F 48.9 °F 30.2 in SW 10.7 mph 13.2 mph 61 % 0 in
14:40 63 °F 48.7 °F 30.2 in WSW 10.7 mph 13.2 mph 60 % 0 in
14:45 62.8 °F 48.2 °F 30.2 in WSW 13 mph 13 mph 59 % 0 in
14:50 62.2 °F 46.9 °F 30.2 in WSW 12.8 mph 15.4 mph 57 % 0 in
14:55 62.2 °F 46.8 °F 30.2 in WSW 7.8 mph 15.4 mph 57 % 0 in
15:00 62.2 °F 47.5 °F 30.2 in WSW 9.8 mph 13.2 mph 58 % 0 in
15:05 62.4 °F 47.1 °F 30.2 in West 13.4 mph 13.4 mph 57 % 0 in
15:10 62.2 °F 46.4 °F 30.2 in WSW 11 mph 15.4 mph 56 % 0 in
15:15 62.1 °F 45.7 °F 30.2 in WSW 10.7 mph 15.4 mph 55 % 0 in
15:20 62.1 °F 45.7 °F 30.2 in WSW 12.5 mph 15.2 mph 55 % 0 in
15:25 62.2 °F 45.3 °F 30.2 in WSW 10.7 mph 17 mph 54 % 0 in
15:30 62.4 °F 46.6 °F 30.2 in WSW 9.8 mph 17 mph 56 % 0 in
15:35 62.4 °F 46.6 °F 30.2 in WSW 9.8 mph 12.3 mph 56 % 0 in
15:40 62.2 °F 45.5 °F 30.2 in West 13.9 mph 13.9 mph 54 % 0 in
15:45 62.4 °F 45.1 °F 30.2 in West 12.8 mph 17.4 mph 53 % 0 in
15:50 62.4 °F 45.1 °F 30.2 in WSW 13 mph 17.4 mph 53 % 0 in
15:55 63 °F 45.5 °F 30.2 in WSW 10.1 mph 16.3 mph 53 % 0 in
16:00 63.3 °F 46.6 °F 30.2 in WSW 10.1 mph 16.3 mph 54 % 0 in
16:05 63.3 °F 45.5 °F 30.2 in SW 8.5 mph 14.8 mph 52 % 0 in
16:10 63.3 °F 45.5 °F 30.2 in WSW 12.8 mph 15.2 mph 52 % 0 in
16:16 63 °F 44.6 °F 30.2 in WSW 14.5 mph 15.9 mph 51 % 0 in
16:20 63 °F 44.6 °F 30.2 in WSW 13.2 mph 15.9 mph 51 % 0 in
16:26 63 °F 44.6 °F 30.2 in WSW 11.4 mph 15.7 mph 51 % 0 in
16:31 63.1 °F 44.8 °F 30.2 in WSW 10.1 mph 13.2 mph 51 % 0 in
16:36 63.1 °F 44.8 °F 30.2 in WSW 10.1 mph 15.4 mph 51 % 0 in
16:41 63 °F 44.6 °F 30.2 in WSW 15.7 mph 15.9 mph 51 % 0 in
16:46 62.8 °F 43.9 °F 30.2 in West 10.3 mph 19.2 mph 50 % 0 in
16:51 62.8 °F 44.2 °F 30.2 in WSW 8.1 mph 19.2 mph 51 % 0 in
16:56 63 °F 44.6 °F 30.2 in West 15.4 mph 17.2 mph 51 % 0 in
17:01 63.3 °F 45.5 °F 30.2 in WSW 9.8 mph 17.2 mph 52 % 0 in
17:06 63.9 °F 45.3 °F 30.2 in WSW 9.8 mph 16.8 mph 51 % 0 in
17:11 64.2 °F 45.1 °F 30.2 in WSW 8.7 mph 15.4 mph 50 % 0 in
17:16 64.6 °F 45.3 °F 30.2 in WSW 7.8 mph 14.5 mph 50 % 0 in
17:21 64 °F 45.7 °F 30.2 in WSW 9.4 mph 14.1 mph 51 % 0 in
17:26 64.6 °F 46 °F 30.2 in WSW 6.5 mph 13 mph 51 % 0 in
17:31 64.6 °F 45.9 °F 30.2 in SW 7.6 mph 13.2 mph 51 % 0 in
17:36 64.6 °F 45.9 °F 30.2 in WSW 8.1 mph 13.2 mph 51 % 0 in
17:41 64 °F 45.7 °F 30.2 in WSW 8.7 mph 10.3 mph 51 % 0 in
17:46 63.9 °F 45.3 °F 30.2 in WSW 7.4 mph 13.2 mph 51 % 0 in
17:51 63.9 °F 45.9 °F 30.2 in WSW 8.7 mph 13.2 mph 52 % 0 in
17:56 63.9 °F 45.9 °F 30.2 in WSW 9.2 mph 10.5 mph 52 % 0 in
18:01 63.9 °F 45.9 °F 30.2 in WSW 10.1 mph 11 mph 52 % 0 in
18:06 63.7 °F 45.7 °F 30.2 in WSW 8.5 mph 11 mph 52 % 0 in
18:11 63.3 °F 46 °F 30.2 in SW 10.1 mph 11 mph 53 % 0 in
18:16 63.1 °F 45.9 °F 30.2 in SW 5.6 mph 11.4 mph 53 % 0 in
18:21 63 °F 45.7 °F 30.2 in SSW 7.6 mph 11.4 mph 53 % 0 in
18:26 63 °F 45.5 °F 30.2 in WSW 10.1 mph 10.7 mph 53 % 0 in
18:31 63 °F 46 °F 30.2 in WSW 7.4 mph 10.7 mph 54 % 0 in
18:36 63 °F 46 °F 30.2 in West 10.3 mph 10.3 mph 54 % 0 in
18:41 63.1 °F 46.2 °F 30.2 in WSW 5.6 mph 10.3 mph 54 % 0 in
18:46 63 °F 46 °F 30.2 in West 4.9 mph 9.6 mph 54 % 0 in
18:51 63 °F 46 °F 30.2 in West 6.3 mph 7.4 mph 54 % 0 in
18:56 63 °F 46 °F 30.2 in WSW 3.4 mph 7.4 mph 54 % 0 in
19:01 63 °F 46 °F 30.2 in WSW 8.1 mph 8.1 mph 54 % 0 in
19:06 62.8 °F 45.3 °F 30.2 in West 7.4 mph 8.1 mph 53 % 0 in
19:11 62.4 °F 45.1 °F 30.2 in Calm   7.4 mph 53 % 0 in
19:16 62.2 °F 45.3 °F 30.2 in WSW 4.7 mph 4.9 mph 54 % 0 in
19:21 61.9 °F 45 °F 30.2 in WSW 3.6 mph 4.9 mph 54 % 0 in
19:26 61.5 °F 45.1 °F 30.2 in Calm   4.7 mph 55 % 0 in
19:31 61.3 °F 45.3 °F 30.2 in Calm   3.8 mph 56 % 0 in
19:36 61.2 °F 45.7 °F 30.2 in Calm   3.8 mph 57 % 0 in
19:41 60.8 °F 45.3 °F 30.2 in Calm     57 % 0 in
19:46 60.8 °F 45.9 °F 30.2 in Calm     58 % 0 in
19:52 60.4 °F 46 °F 30.2 in Calm     59 % 0 in
19:57 60.3 °F 45.9 °F 30.2 in WSW 5.6 mph 5.6 mph 59 % 0 in
20:02 60.3 °F 46.2 °F 30.2 in West 10.1 mph 13.9 mph 60 % 0 in
20:07 60.8 °F 45.9 °F 30.2 in WSW 10.7 mph 15.2 mph 58 % 0 in
20:12 61.2 °F 45.7 °F 30.2 in West 7.8 mph 15.2 mph 57 % 0 in
20:17 61.2 °F 46.2 °F 30.2 in WSW 7.8 mph 12.5 mph 58 % 0 in
20:22 60.8 °F 45.9 °F 30.2 in West 10.7 mph 12.3 mph 58 % 0 in
20:27 60.8 °F 46.2 °F 30.2 in WSW 4.5 mph 12.3 mph 59 % 0 in
20:32 60.6 °F 46.2 °F 30.2 in WSW 3.8 mph 11 mph 59 % 0 in
20:37 60.4 °F 46 °F 30.2 in West 3.8 mph 8.1 mph 59 % 0 in
20:42 60.1 °F 46 °F 30.2 in Calm   4.3 mph 60 % 0 in
20:47 59.5 °F 45.7 °F 30.2 in Calm   3.8 mph 60 % 0 in
20:52 59.2 °F 45.7 °F 30.2 in Calm     61 % 0 in
20:57 59 °F 45.7 °F 30.2 in Calm     61 % 0 in
21:02 58.6 °F 45.7 °F 30.2 in Calm     62 % 0 in
21:07 58.5 °F 45.5 °F 30.2 in Calm     62 % 0 in
21:12 58.1 °F 45.7 °F 30.2 in Calm     63 % 0 in
21:17 57.7 °F 45.7 °F 30.2 in Calm     64 % 0 in
21:22 57.4 °F 45.3 °F 30.2 in Calm     64 % 0 in
21:27 57 °F 45.3 °F 30.2 in Calm     65 % 0 in
21:32 56.5 °F 45.3 °F 30.2 in Calm     66 % 0 in
21:37 56.3 °F 45.1 °F 30.2 in Calm     66 % 0 in
21:42 56.1 °F 45.3 °F 30.2 in Calm     67 % 0 in
21:47 56.1 °F 45.7 °F 30.2 in Calm     68 % 0 in
21:49 56.1 °F 46 °F 30.2 in Calm     69 % 0 in
21:54 55.9 °F 46 °F 30.2 in Calm     69 % 0 in
21:59 55.8 °F 45.9 °F 30.2 in Calm     69 % 0 in
22:04 55.6 °F 46 °F 30.2 in Calm     70 % 0 in
22:09 55.6 °F 46.2 °F 30.2 in Calm     71 % 0 in
22:14 55.6 °F 46.2 °F 30.2 in Calm     71 % 0 in
22:19 55 °F 46.2 °F 30.2 in Calm     72 % 0 in
22:24 54.9 °F 46 °F 30.2 in Calm     72 % 0 in
22:29 54.9 °F 45.9 °F 30.2 in Calm     72 % 0 in
22:34 54.1 °F 45.9 °F 30.2 in Calm     73 % 0 in
22:39 54 °F 45.7 °F 30.2 in Calm     73 % 0 in
22:44 53.8 °F 45.7 °F 30.2 in Calm     74 % 0 in
22:49 53.8 °F 45.7 °F 30.2 in Calm     74 % 0 in
22:54 53.4 °F 45.9 °F 30.2 in Calm     75 % 0 in
22:59 53.2 °F 45.7 °F 30.2 in Calm     75 % 0 in
23:00 53.2 °F 45.7 °F 30.2 in Calm     75 % 0 in
23:05 53.2 °F 45.3 °F 30.2 in Calm     75 % 0 in
23:10 53.1 °F 45.7 °F 30.2 in Calm     76 % 0 in
23:15 53.2 °F 45.9 °F 30.2 in Calm     76 % 0 in
23:20 53.2 °F 46 °F 30.2 in Calm   1.1 mph 76 % 0 in
23:25 53.8 °F 46.8 °F 30.2 in Calm   1.1 mph 77 % 0 in
23:30 54 °F 46.8 °F 30.2 in Calm   0.9 mph 77 % 0 in
23:35 54 °F 46.9 °F 30.2 in Calm   2 mph 77 % 0 in
23:40 54.3 °F 46.9 °F 30.2 in Calm   2 mph 76 % 0 in
23:45 54.9 °F 47.3 °F 30.2 in Calm     76 % 0 in
23:50 55 °F 47.7 °F 30.2 in Calm     76 % 0 in
23:55 55.2 °F 47.5 °F 30.2 in Calm   2.9 mph 75 % 0 in
Le Gheer Warneton
Courtoisie de Weather Underground - 2.25 mb

Mise a jour : 17-12-17 03:12:12
Généré par Cumulus 1.9.4 (1099)